createdAt,value
2024-05-09T00:00:30.387Z,1002.47
2024-05-09T00:01:22.952Z,1002.49
2024-05-09T00:02:23.088Z,1002.50
2024-05-09T00:03:22.921Z,1002.51
2024-05-09T00:04:22.919Z,1002.52
2024-05-09T00:05:22.965Z,1002.52
2024-05-09T00:06:22.856Z,1002.51
2024-05-09T00:07:22.922Z,1002.51
2024-05-09T00:08:22.884Z,1002.50
2024-05-09T00:09:22.827Z,1002.50
2024-05-09T00:10:29.256Z,1002.49
2024-05-09T00:11:23.036Z,1002.48
2024-05-09T00:12:23.093Z,1002.46
2024-05-09T00:13:22.797Z,1002.45
2024-05-09T00:14:22.872Z,1002.43
2024-05-09T00:15:22.755Z,1002.43
2024-05-09T00:16:22.752Z,1002.43
2024-05-09T00:17:22.936Z,1002.43
2024-05-09T00:18:22.917Z,1002.42
2024-05-09T00:19:22.941Z,1002.42
2024-05-09T00:20:28.540Z,1002.41
2024-05-09T00:21:22.683Z,1002.41
2024-05-09T00:22:22.706Z,1002.41
2024-05-09T00:23:22.741Z,1002.41
2024-05-09T00:24:22.674Z,1002.41
2024-05-09T00:25:22.648Z,1002.39
2024-05-09T00:26:22.752Z,1002.38
2024-05-09T00:27:22.627Z,1002.37
2024-05-09T00:28:22.623Z,1002.36
2024-05-09T00:29:22.665Z,1002.35
2024-05-09T00:30:31.595Z,1002.35
2024-05-09T00:31:22.589Z,1002.34
2024-05-09T00:32:22.671Z,1002.34
2024-05-09T00:33:22.770Z,1002.34
2024-05-09T00:34:22.647Z,1002.34
2024-05-09T00:35:22.660Z,1002.34
2024-05-09T00:36:22.522Z,1002.35
2024-05-09T00:37:22.538Z,1002.34
2024-05-09T00:38:22.565Z,1002.34
2024-05-09T00:39:22.563Z,1002.34
2024-05-09T00:40:30.927Z,1002.33
2024-05-09T00:41:22.520Z,1002.33
2024-05-09T00:42:22.464Z,1002.33
2024-05-09T00:43:22.465Z,1002.34
2024-05-09T00:44:22.490Z,1002.35
2024-05-09T00:45:22.470Z,1002.36
2024-05-09T00:46:22.467Z,1002.37
2024-05-09T00:47:22.660Z,1002.37
2024-05-09T00:48:22.555Z,1002.36
2024-05-09T00:49:22.564Z,1002.35
2024-05-09T00:50:29.841Z,1002.35
2024-05-09T00:51:22.386Z,1002.34
2024-05-09T00:52:22.393Z,1002.35
2024-05-09T00:53:22.395Z,1002.34
2024-05-09T00:54:22.318Z,1002.34
2024-05-09T00:55:22.316Z,1002.34
2024-05-09T00:56:22.442Z,1002.34
2024-05-09T00:57:22.321Z,1002.34
2024-05-09T00:58:22.323Z,1002.34
2024-05-09T00:59:22.326Z,1002.34
2024-05-09T01:00:30.724Z,1002.34
2024-05-09T01:01:22.283Z,1002.35
2024-05-09T01:02:22.308Z,1002.35
2024-05-09T01:03:22.774Z,1002.35
2024-05-09T01:04:22.270Z,1002.36
2024-05-09T01:05:22.251Z,1002.37
2024-05-09T01:06:22.211Z,1002.38
2024-05-09T01:07:22.188Z,1002.38
2024-05-09T01:08:22.231Z,1002.38
2024-05-09T01:09:22.178Z,1002.39
2024-05-09T01:10:28.147Z,1002.40
2024-05-09T01:11:22.232Z,1002.40
2024-05-09T01:12:22.209Z,1002.40
2024-05-09T01:13:22.137Z,1002.41
2024-05-09T01:14:22.187Z,1002.41
2024-05-09T01:15:22.144Z,1002.40
2024-05-09T01:16:22.113Z,1002.40
2024-05-09T01:17:22.281Z,1002.40
2024-05-09T01:18:22.223Z,1002.41
2024-05-09T01:19:22.225Z,1002.41
2024-05-09T01:20:31.815Z,1002.41
2024-05-09T01:21:22.084Z,1002.41
2024-05-09T01:22:22.190Z,1002.40
2024-05-09T01:23:22.109Z,1002.39
2024-05-09T01:24:22.044Z,1002.39
2024-05-09T01:25:22.015Z,1002.40
2024-05-09T01:26:22.063Z,1002.40
2024-05-09T01:27:21.980Z,1002.41
2024-05-09T01:28:21.974Z,1002.41
2024-05-09T01:29:22.011Z,1002.42
2024-05-09T01:30:31.198Z,1002.42
2024-05-09T01:31:21.953Z,1002.43
2024-05-09T01:32:22.308Z,1002.44
2024-05-09T01:33:22.138Z,1002.45
2024-05-09T01:34:22.093Z,1002.45
2024-05-09T01:35:22.012Z,1002.44
2024-05-09T01:36:21.875Z,1002.43
2024-05-09T01:37:21.866Z,1002.42
2024-05-09T01:38:21.936Z,1002.41
2024-05-09T01:39:21.846Z,1002.40
2024-05-09T01:40:28.680Z,1002.40
2024-05-09T01:41:21.877Z,1002.39
2024-05-09T01:42:21.849Z,1002.39
2024-05-09T01:43:21.804Z,1002.39
2024-05-09T01:44:21.845Z,1002.40
2024-05-09T01:45:21.824Z,1002.40
2024-05-09T01:46:21.784Z,1002.39
2024-05-09T01:47:21.891Z,1002.39
2024-05-09T01:48:21.978Z,1002.40
2024-05-09T01:49:21.884Z,1002.39
2024-05-09T01:50:33.222Z,1002.39
2024-05-09T01:51:21.758Z,1002.39
2024-05-09T01:52:21.719Z,1002.40
2024-05-09T01:53:21.852Z,1002.41
2024-05-09T01:54:21.693Z,1002.42
2024-05-09T01:55:21.672Z,1002.43
2024-05-09T01:56:21.761Z,1002.44
2024-05-09T01:57:21.651Z,1002.44
2024-05-09T01:58:21.667Z,1002.44
2024-05-09T01:59:21.716Z,1002.44
2024-05-09T02:00:30.283Z,1002.43
2024-05-09T02:01:21.643Z,1002.42
2024-05-09T02:02:21.810Z,1002.41
2024-05-09T02:03:21.757Z,1002.40
2024-05-09T02:04:21.822Z,1002.40
2024-05-09T02:05:21.692Z,1002.39
2024-05-09T02:06:21.554Z,1002.39
2024-05-09T02:07:21.558Z,1002.39
2024-05-09T02:08:22.141Z,1002.40
2024-05-09T02:09:21.540Z,1002.40
2024-05-09T02:10:26.488Z,1002.41
2024-05-09T02:11:21.567Z,1002.41
2024-05-09T02:12:21.617Z,1002.41
2024-05-09T02:13:21.509Z,1002.41
2024-05-09T02:14:21.523Z,1002.41
2024-05-09T02:15:21.457Z,1002.41
2024-05-09T02:16:21.484Z,1002.43
2024-05-09T02:17:21.576Z,1002.43
2024-05-09T02:18:21.598Z,1002.44
2024-05-09T02:19:21.614Z,1002.44
2024-05-09T02:21:21.415Z,1002.45
2024-05-09T02:22:21.431Z,1002.44
2024-05-09T02:23:21.472Z,1002.44
2024-05-09T02:24:21.374Z,1002.43
2024-05-09T02:25:21.360Z,1002.42
2024-05-09T02:26:21.394Z,1002.41
2024-05-09T02:27:21.340Z,1002.40
2024-05-09T02:28:21.350Z,1002.40
2024-05-09T02:29:21.451Z,1002.39
2024-05-09T02:30:29.971Z,1002.39
2024-05-09T02:31:21.326Z,1002.40
2024-05-09T02:32:21.419Z,1002.39
2024-05-09T02:33:21.779Z,1002.39
2024-05-09T02:34:21.363Z,1002.38
2024-05-09T02:35:21.307Z,1002.37
2024-05-09T02:36:21.251Z,1002.36
2024-05-09T02:37:21.245Z,1002.36
2024-05-09T02:38:21.345Z,1002.36
2024-05-09T02:39:21.204Z,1002.36
2024-05-09T02:40:28.929Z,1002.37
2024-05-09T02:41:21.303Z,1002.37
2024-05-09T02:42:21.181Z,1002.37
2024-05-09T02:43:21.171Z,1002.37
2024-05-09T02:44:21.272Z,1002.37
2024-05-09T02:45:21.241Z,1002.37
2024-05-09T02:46:21.154Z,1002.37
2024-05-09T02:47:21.428Z,1002.37
2024-05-09T02:48:21.447Z,1002.38
2024-05-09T02:49:21.449Z,1002.38
2024-05-09T02:50:29.738Z,1002.39
2024-05-09T02:51:21.284Z,1002.39
2024-05-09T02:52:21.178Z,1002.39
2024-05-09T02:53:21.142Z,1002.39
2024-05-09T02:54:21.146Z,1002.39
2024-05-09T02:55:21.123Z,1002.40
2024-05-09T02:56:21.216Z,1002.41
2024-05-09T02:57:21.030Z,1002.42
2024-05-09T02:58:21.006Z,1002.43
2024-05-09T02:59:21.170Z,1002.43
2024-05-09T03:00:26.451Z,1002.43
2024-05-09T03:01:21.145Z,1002.44
2024-05-09T03:02:21.070Z,1002.44
2024-05-09T03:03:21.150Z,1002.44
2024-05-09T03:04:21.058Z,1002.44
2024-05-09T03:05:20.950Z,1002.45
2024-05-09T03:06:20.939Z,1002.45
2024-05-09T03:07:20.960Z,1002.45
2024-05-09T03:08:20.885Z,1002.45
2024-05-09T03:09:20.893Z,1002.46
2024-05-09T03:10:25.612Z,1002.46
2024-05-09T03:11:20.997Z,1002.46
2024-05-09T03:12:20.935Z,1002.45
2024-05-09T03:13:20.852Z,1002.44
2024-05-09T03:14:20.874Z,1002.44
2024-05-09T03:15:20.855Z,1002.44
2024-05-09T03:16:20.843Z,1002.44
2024-05-09T03:17:20.829Z,1002.45
2024-05-09T03:18:20.837Z,1002.46
2024-05-09T03:19:20.836Z,1002.46
2024-05-09T03:20:24.267Z,1002.46
2024-05-09T03:21:20.727Z,1002.46
2024-05-09T03:22:20.708Z,1002.46
2024-05-09T03:23:20.788Z,1002.45
2024-05-09T03:24:20.692Z,1002.45
2024-05-09T03:25:20.685Z,1002.44
2024-05-09T03:26:20.737Z,1002.44
2024-05-09T03:27:20.652Z,1002.43
2024-05-09T03:28:20.660Z,1002.42
2024-05-09T03:29:20.700Z,1002.42
2024-05-09T03:30:29.604Z,1002.42
2024-05-09T03:31:20.636Z,1002.42
2024-05-09T03:32:20.677Z,1002.41
2024-05-09T03:33:21.284Z,1002.41
2024-05-09T03:34:20.728Z,1002.41
2024-05-09T03:35:20.603Z,1002.41
2024-05-09T03:36:20.576Z,1002.42
2024-05-09T03:37:20.544Z,1002.42
2024-05-09T03:38:20.580Z,1002.43
2024-05-09T03:39:20.526Z,1002.43
2024-05-09T03:40:23.886Z,1002.43
2024-05-09T03:41:20.545Z,1002.43
2024-05-09T03:42:20.527Z,1002.44
2024-05-09T03:43:20.481Z,1002.45
2024-05-09T03:44:20.545Z,1002.46
2024-05-09T03:45:20.465Z,1002.46
2024-05-09T03:46:20.450Z,1002.47
2024-05-09T03:47:20.583Z,1002.47
2024-05-09T03:48:20.639Z,1002.47
2024-05-09T03:49:20.499Z,1002.47
2024-05-09T03:50:26.351Z,1002.47
2024-05-09T03:51:20.483Z,1002.46
2024-05-09T03:52:20.392Z,1002.46
2024-05-09T03:53:20.404Z,1002.45
2024-05-09T03:54:20.419Z,1002.45
2024-05-09T03:55:20.364Z,1002.44
2024-05-09T03:56:20.414Z,1002.44
2024-05-09T03:57:20.389Z,1002.44
2024-05-09T03:58:20.357Z,1002.43
2024-05-09T03:59:20.355Z,1002.43
2024-05-09T04:00:30.415Z,1002.43
2024-05-09T04:01:20.397Z,1002.43
2024-05-09T04:02:20.329Z,1002.42
2024-05-09T04:03:20.649Z,1002.42
2024-05-09T04:04:20.338Z,1002.41
2024-05-09T04:05:20.318Z,1002.41
2024-05-09T04:06:20.282Z,1002.41
2024-05-09T04:07:20.259Z,1002.43
2024-05-09T04:08:20.288Z,1002.45
2024-05-09T04:09:20.208Z,1002.46
2024-05-09T04:10:27.755Z,1002.48
2024-05-09T04:11:20.349Z,1002.49
2024-05-09T04:12:20.280Z,1002.50
2024-05-09T04:13:20.191Z,1002.51
2024-05-09T04:14:20.341Z,1002.52
2024-05-09T04:15:20.153Z,1002.52
2024-05-09T04:16:20.160Z,1002.52
2024-05-09T04:17:20.239Z,1002.52
2024-05-09T04:18:20.190Z,1002.53
2024-05-09T04:19:20.363Z,1002.53
2024-05-09T04:20:29.310Z,1002.53
2024-05-09T04:21:20.112Z,1002.54
2024-05-09T04:22:20.077Z,1002.54
2024-05-09T04:23:20.184Z,1002.54
2024-05-09T04:24:20.067Z,1002.55
2024-05-09T04:25:20.058Z,1002.55
2024-05-09T04:26:20.082Z,1002.56
2024-05-09T04:27:20.028Z,1002.57
2024-05-09T04:28:20.036Z,1002.57
2024-05-09T04:29:20.136Z,1002.57
2024-05-09T04:30:26.477Z,1002.57
2024-05-09T04:31:19.996Z,1002.57
2024-05-09T04:32:20.085Z,1002.57
2024-05-09T04:33:20.406Z,1002.58
2024-05-09T04:34:20.023Z,1002.59
2024-05-09T04:35:20.054Z,1002.60
2024-05-09T04:36:19.960Z,1002.61
2024-05-09T04:37:19.916Z,1002.62
2024-05-09T04:38:20.030Z,1002.63
2024-05-09T04:39:19.911Z,1002.65
2024-05-09T04:40:28.118Z,1002.66
2024-05-09T04:41:19.946Z,1002.66
2024-05-09T04:42:19.874Z,1002.66
2024-05-09T04:43:19.850Z,1002.66
2024-05-09T04:44:19.880Z,1002.64
2024-05-09T04:45:19.860Z,1002.63
2024-05-09T04:46:19.829Z,1002.62
2024-05-09T04:47:20.042Z,1002.62
2024-05-09T04:48:20.011Z,1002.63
2024-05-09T04:49:20.020Z,1002.63
2024-05-09T04:50:29.326Z,1002.64
2024-05-09T04:51:19.806Z,1002.65
2024-05-09T04:52:19.757Z,1002.66
2024-05-09T04:53:19.793Z,1002.66
2024-05-09T04:54:30.074Z,1002.66
2024-05-09T04:55:19.745Z,1002.67
2024-05-09T04:56:19.806Z,1002.67
2024-05-09T04:57:19.736Z,1002.67
2024-05-09T04:58:19.720Z,1002.66
2024-05-09T04:59:19.725Z,1002.66
2024-05-09T05:00:28.463Z,1002.66
2024-05-09T05:01:19.706Z,1002.66
2024-05-09T05:02:19.843Z,1002.66
2024-05-09T05:03:20.018Z,1002.67
2024-05-09T05:04:19.741Z,1002.67
2024-05-09T05:05:19.770Z,1002.69
2024-05-09T05:06:19.617Z,1002.69
2024-05-09T05:07:19.601Z,1002.70
2024-05-09T05:08:19.938Z,1002.70
2024-05-09T05:09:19.607Z,1002.70
2024-05-09T05:10:25.455Z,1002.71
2024-05-09T05:11:19.751Z,1002.71
2024-05-09T05:12:19.666Z,1002.71
2024-05-09T05:13:21.096Z,1002.71
2024-05-09T05:14:19.758Z,1002.71
2024-05-09T05:15:19.517Z,1002.70
2024-05-09T05:16:19.514Z,1002.71
2024-05-09T05:17:19.619Z,1002.71
2024-05-09T05:18:19.884Z,1002.72
2024-05-09T05:19:19.604Z,1002.73
2024-05-09T05:20:27.402Z,1002.75
2024-05-09T05:21:19.628Z,1002.77
2024-05-09T05:22:19.448Z,1002.78
2024-05-09T05:23:19.605Z,1002.79
2024-05-09T05:24:19.452Z,1002.79
2024-05-09T05:25:19.426Z,1002.79
2024-05-09T05:26:19.483Z,1002.79
2024-05-09T05:27:19.391Z,1002.79
2024-05-09T05:28:19.401Z,1002.78
2024-05-09T05:29:20.993Z,1002.78
2024-05-09T05:30:25.062Z,1002.78
2024-05-09T05:31:19.384Z,1002.78
2024-05-09T05:32:19.631Z,1002.77
2024-05-09T05:33:19.975Z,1002.78
2024-05-09T05:34:19.340Z,1002.77
2024-05-09T05:35:19.374Z,1002.77
2024-05-09T05:36:19.290Z,1002.77
2024-05-09T05:37:19.281Z,1002.77
2024-05-09T05:38:21.945Z,1002.78
2024-05-09T05:39:19.315Z,1002.79
2024-05-09T05:40:28.138Z,1002.80
2024-05-09T05:41:19.298Z,1002.82
2024-05-09T05:42:19.253Z,1002.82
2024-05-09T05:43:19.244Z,1002.83
2024-05-09T05:44:19.266Z,1002.84
2024-05-09T05:45:19.227Z,1002.85
2024-05-09T05:46:19.200Z,1002.85
2024-05-09T05:47:19.244Z,1002.85
2024-05-09T05:48:19.414Z,1002.85
2024-05-09T05:49:19.276Z,1002.85
2024-05-09T05:50:27.355Z,1002.85
2024-05-09T05:51:19.215Z,1002.86
2024-05-09T05:52:19.143Z,1002.86
2024-05-09T05:53:19.162Z,1002.86
2024-05-09T05:54:19.138Z,1002.85
2024-05-09T05:55:19.096Z,1002.85
2024-05-09T05:56:19.127Z,1002.85
2024-05-09T05:57:19.080Z,1002.86
2024-05-09T05:58:19.064Z,1002.85
2024-05-09T05:59:19.081Z,1002.87
2024-05-09T06:00:29.178Z,1002.88
2024-05-09T06:01:19.104Z,1002.89
2024-05-09T06:02:19.364Z,1002.90
2024-05-09T06:03:19.031Z,1002.91
2024-05-09T06:04:19.077Z,1002.92
2024-05-09T06:05:19.041Z,1002.93
2024-05-09T06:06:18.976Z,1002.93
2024-05-09T06:07:18.979Z,1002.93
2024-05-09T06:08:19.025Z,1002.93
2024-05-09T06:09:19.002Z,1002.93
2024-05-09T06:10:25.374Z,1002.93
2024-05-09T06:11:19.053Z,1002.92
2024-05-09T06:12:19.060Z,1002.90
2024-05-09T06:13:18.918Z,1002.89
2024-05-09T06:14:18.938Z,1002.89
2024-05-09T06:15:18.909Z,1002.89
2024-05-09T06:16:18.885Z,1002.88
2024-05-09T06:17:19.010Z,1002.88
2024-05-09T06:18:19.214Z,1002.89
2024-05-09T06:19:18.940Z,1002.90
2024-05-09T06:20:24.025Z,1002.90
2024-05-09T06:21:19.006Z,1002.90
2024-05-09T06:22:18.823Z,1002.90
2024-05-09T06:23:18.844Z,1002.90
2024-05-09T06:24:18.796Z,1002.91
2024-05-09T06:25:18.775Z,1002.90
2024-05-09T06:26:18.839Z,1002.91
2024-05-09T06:27:18.765Z,1002.91
2024-05-09T06:28:18.747Z,1002.91
2024-05-09T06:29:18.790Z,1002.91
2024-05-09T06:30:25.599Z,1002.92
2024-05-09T06:31:18.724Z,1002.92
2024-05-09T06:32:18.830Z,1002.92
2024-05-09T06:33:18.952Z,1002.91
2024-05-09T06:34:18.954Z,1002.91
2024-05-09T06:35:18.766Z,1002.91
2024-05-09T06:36:18.707Z,1002.91
2024-05-09T06:37:18.677Z,1002.90
2024-05-09T06:38:18.681Z,1002.89
2024-05-09T06:39:18.643Z,1002.89
2024-05-09T06:40:25.466Z,1002.90
2024-05-09T06:41:18.701Z,1002.91
2024-05-09T06:42:18.595Z,1002.91
2024-05-09T06:43:19.745Z,1002.92
2024-05-09T06:44:18.670Z,1002.92
2024-05-09T06:45:18.579Z,1002.92
2024-05-09T06:46:18.558Z,1002.90
2024-05-09T06:47:18.610Z,1002.89
2024-05-09T06:48:19.305Z,1002.88
2024-05-09T06:49:18.739Z,1002.89
2024-05-09T06:50:23.932Z,1002.90
2024-05-09T06:51:18.568Z,1002.91
2024-05-09T06:52:18.498Z,1002.92
2024-05-09T06:53:18.588Z,1002.92
2024-05-09T06:54:18.480Z,1002.93
2024-05-09T06:55:18.499Z,1002.94
2024-05-09T06:56:18.500Z,1002.95
2024-05-09T06:57:18.438Z,1002.95
2024-05-09T06:58:18.439Z,1002.95
2024-05-09T06:59:18.520Z,1002.95
2024-05-09T07:00:26.912Z,1002.95
2024-05-09T07:01:18.450Z,1002.96
2024-05-09T07:02:18.485Z,1002.95
2024-05-09T07:03:19.492Z,1002.95
2024-05-09T07:04:18.450Z,1002.95
2024-05-09T07:05:18.452Z,1002.93
2024-05-09T07:06:18.456Z,1002.92
2024-05-09T07:07:18.377Z,1002.91
2024-05-09T07:08:18.543Z,1002.91
2024-05-09T07:09:18.326Z,1002.91
2024-05-09T07:10:25.579Z,1002.90
2024-05-09T07:11:18.443Z,1002.90
2024-05-09T07:12:18.458Z,1002.89
2024-05-09T07:13:18.281Z,1002.89
2024-05-09T07:14:18.307Z,1002.90
2024-05-09T07:15:18.242Z,1002.91
2024-05-09T07:16:18.258Z,1002.90
2024-05-09T07:17:18.316Z,1002.91
2024-05-09T07:18:19.299Z,1002.90
2024-05-09T07:19:18.332Z,1002.90
2024-05-09T07:20:23.734Z,1002.88
2024-05-09T07:21:18.310Z,1002.87
2024-05-09T07:22:18.175Z,1002.87
2024-05-09T07:23:18.444Z,1002.86
2024-05-09T07:24:18.165Z,1002.84
2024-05-09T07:25:18.187Z,1002.82
2024-05-09T07:26:18.350Z,1002.81
2024-05-09T07:27:18.127Z,1002.81
2024-05-09T07:28:18.220Z,1002.81
2024-05-09T07:29:18.222Z,1002.80
2024-05-09T07:30:23.572Z,1002.79
2024-05-09T07:31:18.101Z,1002.79
2024-05-09T07:32:18.202Z,1002.79
2024-05-09T07:33:18.383Z,1002.79
2024-05-09T07:34:18.144Z,1002.81
2024-05-09T07:35:18.114Z,1002.81
2024-05-09T07:36:18.068Z,1002.80
2024-05-09T07:37:18.019Z,1002.79
2024-05-09T07:38:18.076Z,1002.78
2024-05-09T07:39:17.992Z,1002.77
2024-05-09T07:40:28.170Z,1002.77
2024-05-09T07:41:18.012Z,1002.77
2024-05-09T07:42:17.995Z,1002.76
2024-05-09T07:43:17.949Z,1002.74
2024-05-09T07:44:17.977Z,1002.74
2024-05-09T07:45:39.658Z,1002.73
2024-05-09T07:47:14.348Z,1002.72
2024-05-09T07:50:34.261Z,1002.72
2024-05-09T07:53:32.454Z,1002.72
2024-05-09T07:53:49.304Z,1002.70
2024-05-09T07:54:00.441Z,1002.68
2024-05-09T07:54:56.290Z,1002.67
2024-05-09T07:55:56.642Z,1002.66
2024-05-09T07:56:56.183Z,1002.65
2024-05-09T07:57:55.974Z,1002.63
2024-05-09T07:58:56.364Z,1002.64
2024-05-09T07:59:55.930Z,1002.61
2024-05-09T08:00:56.063Z,1002.60
2024-05-09T08:01:56.056Z,1002.59
2024-05-09T08:02:55.988Z,1002.59
2024-05-09T08:03:56.136Z,1002.59
2024-05-09T08:04:55.959Z,1002.60
2024-05-09T08:05:55.861Z,1002.61
2024-05-09T08:06:55.865Z,1002.61
2024-05-09T08:07:55.819Z,1002.61
2024-05-09T08:08:56.060Z,1002.63
2024-05-09T08:09:55.909Z,1002.65
2024-05-09T08:10:55.873Z,1002.64
2024-05-09T08:11:55.899Z,1002.64
2024-05-09T08:12:55.826Z,1002.65
2024-05-09T08:13:55.792Z,1002.63
2024-05-09T08:14:55.762Z,1002.63
2024-05-09T08:15:55.826Z,1002.63
2024-05-09T08:16:55.787Z,1002.62
2024-05-09T08:17:56.018Z,1002.61
2024-05-09T08:18:55.792Z,1002.60
2024-05-09T08:19:55.702Z,1002.59
2024-05-09T08:20:55.734Z,1002.59
2024-05-09T08:21:55.731Z,1002.58
2024-05-09T08:22:55.664Z,1002.57
2024-05-09T08:23:55.672Z,1002.55
2024-05-09T08:24:55.767Z,1002.55
2024-05-09T08:25:55.709Z,1002.53
2024-05-09T08:26:55.641Z,1002.53
2024-05-09T08:27:55.700Z,1002.53
2024-05-09T08:28:55.597Z,1002.53
2024-05-09T08:29:55.709Z,1002.51
2024-05-09T08:30:55.761Z,1002.50
2024-05-09T08:31:55.633Z,1002.49
2024-05-09T08:32:55.766Z,1002.47
2024-05-09T08:33:55.753Z,1002.48
2024-05-09T08:34:55.660Z,1002.47
2024-05-09T08:35:55.548Z,1002.47
2024-05-09T08:36:57.549Z,1002.45
2024-05-09T08:37:55.644Z,1002.45
2024-05-09T08:38:55.497Z,1002.46
2024-05-09T08:39:55.663Z,1002.44
2024-05-09T08:40:55.623Z,1002.45
2024-05-09T08:41:55.473Z,1002.45
2024-05-09T08:42:55.522Z,1002.43
2024-05-09T08:43:55.432Z,1002.43
2024-05-09T08:44:55.446Z,1002.41
2024-05-09T08:45:55.455Z,1002.43
2024-05-09T08:46:55.440Z,1002.42
2024-05-09T08:47:55.649Z,1002.42
2024-05-09T08:48:55.594Z,1002.41
2024-05-09T08:49:55.463Z,1002.40
2024-05-09T08:50:55.430Z,1002.40
2024-05-09T08:51:55.450Z,1002.42
2024-05-09T08:52:55.370Z,1002.42
2024-05-09T08:53:55.344Z,1002.41
2024-05-09T08:54:55.387Z,1002.43
2024-05-09T08:55:55.335Z,1002.42
2024-05-09T08:56:55.311Z,1002.40
2024-05-09T08:57:55.382Z,1002.38
2024-05-09T08:58:55.328Z,1002.38
2024-05-09T08:59:55.291Z,1002.37
2024-05-09T09:00:55.482Z,1002.37
2024-05-09T09:01:55.430Z,1002.39
2024-05-09T09:02:55.325Z,1002.39
2024-05-09T09:03:55.419Z,1002.41
2024-05-09T09:04:55.336Z,1002.39
2024-05-09T09:05:55.208Z,1002.41
2024-05-09T09:06:58.179Z,1002.43
2024-05-09T09:07:55.194Z,1002.40
2024-05-09T09:08:55.194Z,1002.40
2024-05-09T09:09:55.228Z,1002.40
2024-05-09T09:10:55.281Z,1002.43
2024-05-09T09:11:55.265Z,1002.41
2024-05-09T09:12:55.192Z,1002.41
2024-05-09T09:13:55.161Z,1002.40
2024-05-09T09:14:55.121Z,1002.39
2024-05-09T09:15:55.130Z,1002.38
2024-05-09T09:16:55.109Z,1002.40
2024-05-09T09:17:55.251Z,1002.38
2024-05-09T09:18:55.257Z,1002.36
2024-05-09T09:19:55.125Z,1002.36
2024-05-09T09:20:55.275Z,1002.37
2024-05-09T09:21:55.089Z,1002.36
2024-05-09T09:22:55.027Z,1002.34
2024-05-09T09:23:55.017Z,1002.31
2024-05-09T09:24:55.034Z,1002.30
2024-05-09T09:25:55.008Z,1002.30
2024-05-09T09:26:54.989Z,1002.31
2024-05-09T09:27:55.152Z,1002.30
2024-05-09T09:28:54.975Z,1002.30
2024-05-09T09:29:54.951Z,1002.31
2024-05-09T09:30:54.975Z,1002.31
2024-05-09T09:31:54.940Z,1002.32
2024-05-09T09:32:55.049Z,1002.32
2024-05-09T09:33:55.247Z,1002.36
2024-05-09T09:34:55.090Z,1002.33
2024-05-09T09:35:54.892Z,1002.32
2024-05-09T09:36:54.938Z,1002.31
2024-05-09T09:37:54.895Z,1002.33
2024-05-09T09:38:54.899Z,1002.32
2024-05-09T09:39:54.856Z,1002.31
2024-05-09T09:40:54.928Z,1002.30
2024-05-09T09:41:54.820Z,1002.27
2024-05-09T09:42:54.869Z,1002.28
2024-05-09T09:43:54.814Z,1002.28
2024-05-09T09:45:03.762Z,1002.30
2024-05-09T09:45:54.843Z,1002.30
2024-05-09T09:46:54.797Z,1002.29
2024-05-09T09:47:54.867Z,1002.26
2024-05-09T09:48:54.896Z,1002.28
2024-05-09T09:49:54.827Z,1002.26
2024-05-09T09:50:54.723Z,1002.23
2024-05-09T09:51:54.759Z,1002.24
2024-05-09T09:52:54.718Z,1002.24
2024-05-09T09:53:54.716Z,1002.20
2024-05-09T09:54:55.030Z,1002.20
2024-05-09T09:55:54.692Z,1002.21
2024-05-09T09:56:54.676Z,1002.21
2024-05-09T09:57:54.691Z,1002.21
2024-05-09T09:58:54.650Z,1002.23
2024-05-09T09:59:54.626Z,1002.18
2024-05-09T10:00:54.854Z,1002.15
2024-05-09T10:01:54.714Z,1002.18
2024-05-09T10:02:54.637Z,1002.16
2024-05-09T10:03:54.760Z,1002.18
2024-05-09T10:04:54.746Z,1002.15
2024-05-09T10:05:54.662Z,1002.14
2024-05-09T10:06:54.669Z,1002.12
2024-05-09T10:07:54.545Z,1002.13
2024-05-09T10:08:54.579Z,1002.14
2024-05-09T10:09:54.544Z,1002.11
2024-05-09T10:10:54.725Z,1002.10
2024-05-09T10:11:59.853Z,1002.11
2024-05-09T10:12:54.564Z,1002.12
2024-05-09T10:13:54.502Z,1002.12
2024-05-09T10:14:54.507Z,1002.11
2024-05-09T10:15:54.836Z,1002.11
2024-05-09T10:16:54.472Z,1002.10
2024-05-09T10:17:54.762Z,1002.09
2024-05-09T10:18:54.633Z,1002.08
2024-05-09T10:19:54.517Z,1002.05
2024-05-09T10:20:54.454Z,1002.03
2024-05-09T10:21:54.439Z,1002.01
2024-05-09T10:22:54.415Z,1002.03
2024-05-09T10:23:54.379Z,1002.02
2024-05-09T10:24:54.423Z,1001.99
2024-05-09T10:25:54.353Z,1001.97
2024-05-09T10:26:54.363Z,1002.00
2024-05-09T10:27:54.480Z,1001.97
2024-05-09T10:28:54.320Z,1001.94
2024-05-09T10:29:54.332Z,1001.92
2024-05-09T10:30:54.360Z,1001.95
2024-05-09T10:31:54.384Z,1001.92
2024-05-09T10:32:54.361Z,1001.93
2024-05-09T10:33:54.443Z,1001.97
2024-05-09T10:34:54.258Z,1001.96
2024-05-09T10:35:54.257Z,1001.92
2024-05-09T10:36:54.335Z,1001.91
2024-05-09T10:37:54.222Z,1001.92
2024-05-09T10:38:54.233Z,1001.92
2024-05-09T10:39:54.274Z,1001.90
2024-05-09T10:40:54.203Z,1001.90
2024-05-09T10:41:54.209Z,1001.89
2024-05-09T10:42:54.245Z,1001.89
2024-05-09T10:43:54.172Z,1001.90
2024-05-09T10:44:54.182Z,1001.85
2024-05-09T10:45:54.265Z,1001.85
2024-05-09T10:46:54.176Z,1001.81
2024-05-09T10:47:54.423Z,1001.77
2024-05-09T10:48:54.323Z,1001.74
2024-05-09T10:49:54.229Z,1001.71
2024-05-09T10:50:54.118Z,1001.77
2024-05-09T10:51:54.166Z,1001.75
2024-05-09T10:52:54.065Z,1001.77
2024-05-09T10:53:54.069Z,1001.75
2024-05-09T10:54:54.143Z,1001.72
2024-05-09T10:55:54.045Z,1001.70
2024-05-09T10:56:54.044Z,1001.70
2024-05-09T10:57:54.063Z,1001.69
2024-05-09T10:58:54.005Z,1001.68
2024-05-09T10:59:54.024Z,1001.68
2024-05-09T11:00:54.117Z,1001.67
2024-05-09T11:01:54.142Z,1001.65
2024-05-09T11:02:54.027Z,1001.62
2024-05-09T11:03:54.215Z,1001.65
2024-05-09T11:04:54.177Z,1001.64
2024-05-09T11:05:54.049Z,1001.59
2024-05-09T11:06:53.997Z,1001.61
2024-05-09T11:07:53.975Z,1001.62
2024-05-09T11:08:53.901Z,1001.62
2024-05-09T11:09:53.946Z,1001.62
2024-05-09T11:10:53.990Z,1001.61
2024-05-09T11:11:53.922Z,1001.63
2024-05-09T11:12:53.935Z,1001.61
2024-05-09T11:13:53.878Z,1001.58
2024-05-09T11:14:53.821Z,1001.60
2024-05-09T11:15:53.928Z,1001.58
2024-05-09T11:16:53.806Z,1001.60
2024-05-09T11:17:53.902Z,1001.60
2024-05-09T11:18:53.980Z,1001.58
2024-05-09T11:19:53.872Z,1001.57
2024-05-09T11:20:53.777Z,1001.58
2024-05-09T11:21:53.810Z,1001.54
2024-05-09T11:22:53.746Z,1001.54
2024-05-09T11:23:53.752Z,1001.53
2024-05-09T11:24:53.761Z,1001.56
2024-05-09T11:25:53.757Z,1001.50
2024-05-09T11:26:53.698Z,1001.48
2024-05-09T11:27:53.769Z,1001.48
2024-05-09T11:28:53.674Z,1001.46
2024-05-09T11:29:53.750Z,1001.46
2024-05-09T11:30:53.710Z,1001.44
2024-05-09T11:31:53.783Z,1001.43
2024-05-09T11:32:53.748Z,1001.42
2024-05-09T11:33:53.800Z,1001.42
2024-05-09T11:34:53.666Z,1001.43
2024-05-09T11:35:53.615Z,1001.44
2024-05-09T11:36:53.701Z,1001.40
2024-05-09T11:37:53.615Z,1001.36
2024-05-09T11:38:53.568Z,1001.33
2024-05-09T11:39:53.683Z,1001.32
2024-05-09T11:40:53.712Z,1001.32
2024-05-09T11:41:53.545Z,1001.32
2024-05-09T11:42:53.722Z,1001.32
2024-05-09T11:43:53.525Z,1001.32
2024-05-09T11:44:53.520Z,1001.30
2024-05-09T11:45:53.702Z,1001.31
2024-05-09T11:46:53.531Z,1001.32
2024-05-09T11:47:53.625Z,1001.30
2024-05-09T11:48:53.751Z,1001.30
2024-05-09T11:49:53.595Z,1001.31
2024-05-09T11:50:53.464Z,1001.29
2024-05-09T11:51:53.547Z,1001.28
2024-05-09T11:52:53.453Z,1001.27
2024-05-09T11:53:53.433Z,1001.27
2024-05-09T11:54:53.507Z,1001.29
2024-05-09T11:55:53.419Z,1001.28
2024-05-09T11:56:53.401Z,1001.29
2024-05-09T11:57:53.479Z,1001.25
2024-05-09T11:58:53.399Z,1001.24
2024-05-09T11:59:53.368Z,1001.22
2024-05-09T12:00:53.516Z,1001.22
2024-05-09T12:01:53.548Z,1001.22
2024-05-09T12:02:53.342Z,1001.24
2024-05-09T12:03:53.546Z,1001.21
2024-05-09T12:04:53.447Z,1001.21
2024-05-09T12:05:53.399Z,1001.21
2024-05-09T12:06:53.311Z,1001.17
2024-05-09T12:07:53.279Z,1001.14
2024-05-09T12:08:53.300Z,1001.14
2024-05-09T12:09:53.332Z,1001.10